Time;durP1;ratioP1;P1;durP2;ratioP2;P2;SDS_P1;SDS_P2;PMS_P1;PMS_P2;Temp;Humidity;BMP_temperature;BMP_pressure;BME280_temperature;BME280_humidity;BME280_pressure;Samples;Min_cycle;Max_cycle;Signal;HPM_P1;HPM_P2
2022/06/23 00:01:42;;;;;;;;;;;;;;;;;;5038134;28;19913;-78
2022/06/23 00:04:08;;;;;;;;;;;;;;;;;;5037480;28;19920;-80
2022/06/23 00:06:34;;;;;;;;;;;;;;;;;;5038917;28;19933;-79
2022/06/23 00:09:00;;;;;;;;;;;;;;;;;;5038855;28;19955;-79
2022/06/23 00:11:27;;;;;;;;;;;;;;;;;;5038261;28;20228;-78
2022/06/23 00:13:54;;;;;;;;;;;;;;;;;;5038264;28;19936;-79
2022/06/23 00:16:20;;;;;;;;;;;;;;;;;;5037225;28;20381;-78
2022/06/23 00:18:45;;;;;;;;;;;;;;;;;;5037237;28;19966;-80
2022/06/23 00:21:11;;;;;;;;;;;;;;;;;;5039268;28;19919;-80
2022/06/23 00:23:37;;;;;;;;;;;;;;;;;;5037724;28;19920;-79
2022/06/23 00:26:03;;;;;;;;;;;;;;;;;;5038593;28;19909;-78
2022/06/23 00:28:29;;;;;;;;;;;;;;;;;;5036023;28;19916;-78
2022/06/23 00:30:55;;;;;;;;;;;;;;;;;;5037005;28;20019;-78
2022/06/23 00:33:21;;;;;;;;;;;;;;;;;;5038872;28;20250;-78
2022/06/23 00:35:47;;;;;;;;;;;;;;;;;;5036703;28;19924;-78
2022/06/23 00:38:13;;;;;;;;;;;;;;;;;;5035278;28;20392;-77
2022/06/23 00:40:39;;;;;;;;;;;;;;;;;;5035365;28;20429;-78
2022/06/23 00:43:05;;;;;;;;;;;;;;;;;;5037680;28;19909;-77
2022/06/23 00:45:30;;;;;;;;;;;;;;;;;;5037314;28;20372;-78
2022/06/23 00:47:56;;;;;;;;;;;;;;;;;;5036698;28;19944;-78
2022/06/23 00:50:22;;;;;;;;;;;;;;;;;;5035843;28;20395;-78
2022/06/23 00:52:48;;;;;;;;;;;;;;;;;;5036935;28;19910;-78
2022/06/23 00:55:14;;;;;;;;;;;;;;;;;;5036419;28;19939;-78
2022/06/23 00:57:40;;;;;;;;;;;;;;;;;;5035858;28;19971;-78
2022/06/23 01:00:06;;;;;;;;;;;;;;;;;;5037192;28;19916;-78
2022/06/23 01:02:32;;;;;;;;;;;;;;;;;;5037523;28;19960;-78
2022/06/23 01:04:57;;;;;;;;;;;;;;;;;;5037319;28;20496;-78
2022/06/23 01:07:23;;;;;;;;;;;;;;;;;;5038037;28;19910;-77
2022/06/23 01:09:49;;;;;;;;;;;;;;;;;;5036904;28;20374;-78
2022/06/23 01:12:15;;;;;;;;;;;;;;;;;;5037023;28;19913;-77
2022/06/23 01:14:41;;;;;;;;;;;;;;;;;;5036939;28;19967;-78
2022/06/23 01:17:07;;;;;;;;;;;;;;;;;;5036706;28;19959;-77
2022/06/23 01:19:33;;;;;;;;;;;;;;;;;;5033611;28;19909;-77
2022/06/23 01:21:59;;;;;;;;;;;;;;;;;;5037316;28;20345;-78
2022/06/23 01:24:25;;;;;;;;;;;;;;;;;;5038372;28;19931;-79
2022/06/23 01:26:51;;;;;;;;;;;;;;;;;;5036740;28;19919;-78
2022/06/23 01:29:17;;;;;;;;;;;;;;;;;;5036348;28;20029;-78
2022/06/23 01:31:43;;;;;;;;;;;;;;;;;;5036436;28;19915;-78
2022/06/23 01:34:09;;;;;;;;;;;;;;;;;;5037008;28;19920;-78
2022/06/23 01:36:35;;;;;;;;;;;;;;;;;;5036341;28;19909;-78
2022/06/23 01:39:01;;;;;;;;;;;;;;;;;;5036395;28;19913;-79
2022/06/23 01:41:27;;;;;;;;;;;;;;;;;;5038738;28;19971;-78
2022/06/23 01:43:58;;;;;;;;;;;;;;;;;;5040990;28;19913;-77
2022/06/23 01:46:24;;;;;;;;;;;;;;;;;;5040783;28;19909;-80
2022/06/23 01:48:53;;;;;;;;;;;;;;;;;;5041732;28;19919;-79
2022/06/23 01:51:19;;;;;;;;;;;;;;;;;;5042849;28;19928;-79
2022/06/23 01:53:45;;;;;;;;;;;;;;;;;;5044968;28;20516;-78
2022/06/23 01:56:11;;;;;;;;;;;;;;;;;;5044372;28;19913;-79
2022/06/23 01:58:37;;;;;;;;;;;;;;;;;;5042050;28;19909;-79
2022/06/23 02:01:03;;;;;;;;;;;;;;;;;;5042001;28;19956;-78
2022/06/23 02:03:28;;;;;;;;;;;;;;;;;;5041920;28;19909;-78
2022/06/23 02:05:54;;;;;;;;;;;;;;;;;;5040785;28;20123;-78
2022/06/23 02:08:20;;;;;;;;;;;;;;;;;;5041321;28;20383;-80
2022/06/23 02:10:46;;;;;;;;;;;;;;;;;;5039625;28;19920;-78
2022/06/23 02:13:12;;;;;;;;;;;;;;;;;;5039070;28;19913;-78
2022/06/23 02:15:38;;;;;;;;;;;;;;;;;;5042171;28;19949;-78
2022/06/23 02:18:04;;;;;;;;;;;;;;;;;;5040492;28;20421;-79
2022/06/23 02:20:30;;;;;;;;;;;;;;;;;;5038380;28;19909;-78
2022/06/23 02:22:56;;;;;;;;;;;;;;;;;;5038878;28;20555;-77
2022/06/23 02:25:21;;;;;;;;;;;;;;;;;;5039796;28;19909;-78
2022/06/23 02:27:47;;;;;;;;;;;;;;;;;;5038840;28;20392;-78
2022/06/23 02:30:13;;;;;;;;;;;;;;;;;;5040924;28;19977;-77
2022/06/23 02:32:39;;;;;;;;;;;;;;;;;;5043116;28;20007;-77
2022/06/23 02:35:05;;;;;;;;;;;;;;;;;;5042448;28;19940;-77
2022/06/23 02:37:31;;;;;;;;;;;;;;;;;;5043405;28;19909;-78
2022/06/23 02:39:57;;;;;;;;;;;;;;;;;;5044391;28;19967;-77
2022/06/23 02:42:23;;;;;;;;;;;;;;;;;;5042375;28;19909;-77
2022/06/23 02:44:49;;;;;;;;;;;;;;;;;;5042411;28;20277;-79
2022/06/23 02:47:14;;;;;;;;;;;;;;;;;;5040334;28;19928;-78
2022/06/23 02:49:40;;;;;;;;;;;;;;;;;;5040212;28;20421;-79
2022/06/23 02:52:06;;;;;;;;;;;;;;;;;;5043688;28;19960;-77
2022/06/23 02:54:32;;;;;;;;;;;;;;;;;;5040671;28;19917;-77
2022/06/23 02:56:58;;;;;;;;;;;;;;;;;;5042787;28;20273;-77
2022/06/23 02:59:24;;;;;;;;;;;;;;;;;;5042764;28;19909;-78
2022/06/23 03:01:50;;;;;;;;;;;;;;;;;;5042736;28;20345;-78
2022/06/23 03:04:16;;;;;;;;;;;;;;;;;;5041555;28;19910;-78
2022/06/23 03:06:42;;;;;;;;;;;;;;;;;;5042066;28;20289;-78
2022/06/23 03:09:08;;;;;;;;;;;;;;;;;;5042369;28;19913;-78
2022/06/23 03:11:52;;;;;;;;;;;;;;;;;;5042167;28;20284;-78
2022/06/23 03:14:18;;;;;;;;;;;;;;;;;;5042031;28;19975;-80
2022/06/23 03:16:43;;;;;;;;;;;;;;;;;;5041310;28;19909;-77
2022/06/23 03:19:10;;;;;;;;;;;;;;;;;;5036584;28;20000;-79
2022/06/23 03:21:36;;;;;;;;;;;;;;;;;;5034376;28;19909;-78
2022/06/23 03:24:02;;;;;;;;;;;;;;;;;;5034216;28;19915;-78
2022/06/23 03:26:28;;;;;;;;;;;;;;;;;;5035051;28;19909;-79
2022/06/23 03:28:54;;;;;;;;;;;;;;;;;;5033575;28;19955;-79
2022/06/23 03:31:20;;;;;;;;;;;;;;;;;;5033865;28;20266;-79
2022/06/23 03:33:46;;;;;;;;;;;;;;;;;;5034522;28;19913;-78
2022/06/23 03:36:11;;;;;;;;;;;;;;;;;;5034298;28;20203;-78
2022/06/23 03:41:38;;;;;;;;;;;;;;;;;;5033828;28;19919;-79
2022/06/23 03:44:03;;;;;;;;;;;;;;;;;;5032230;28;19909;-78
2022/06/23 03:46:29;;;;;;;;;;;;;;;;;;5033494;28;19940;-78
2022/06/23 03:48:55;;;;;;;;;;;;;;;;;;5034138;28;20385;-79
2022/06/23 03:51:21;;;;;;;;;;;;;;;;;;5031334;28;20369;-78
2022/06/23 03:53:49;;;;;;;;;;;;;;;;;;5031412;28;20297;-79
2022/06/23 03:56:15;;;;;;;;;;;;;;;;;;5032716;28;19963;-78
2022/06/23 03:58:40;;;;;;;;;;;;;;;;;;5032711;28;20016;-80
2022/06/23 04:01:07;;;;;;;;;;;;;;;;;;5033148;28;19916;-78
2022/06/23 04:03:32;;;;;;;;;;;;;;;;;;5034297;28;19975;-77
2022/06/23 04:05:58;;;;;;;;;;;;;;;;;;5039378;28;19917;-78
2022/06/23 04:08:24;;;;;;;;;;;;;;;;;;5040449;28;19910;-78
2022/06/23 04:10:50;;;;;;;;;;;;;;;;;;5039001;28;19920;-78
2022/06/23 04:13:16;;;;;;;;;;;;;;;;;;5041297;28;19920;-77
2022/06/23 04:15:42;;;;;;;;;;;;;;;;;;5040508;28;20411;-78
2022/06/23 04:18:08;;;;;;;;;;;;;;;;;;5039670;28;19936;-78
2022/06/23 04:20:34;;;;;;;;;;;;;;;;;;5034117;28;20339;-78
2022/06/23 04:23:00;;;;;;;;;;;;;;;;;;5033567;28;19909;-78
2022/06/23 04:25:26;;;;;;;;;;;;;;;;;;5036767;28;19909;-78
2022/06/23 04:27:51;;;;;;;;;;;;;;;;;;5040143;28;19956;-79
2022/06/23 04:30:18;;;;;;;;;;;;;;;;;;5038919;28;19913;-80
2022/06/23 04:32:43;;;;;;;;;;;;;;;;;;5038227;28;19932;-79
2022/06/23 04:35:09;;;;;;;;;;;;;;;;;;5037309;28;19917;-77
2022/06/23 04:37:35;;;;;;;;;;;;;;;;;;5037296;28;20470;-79
2022/06/23 04:40:01;;;;;;;;;;;;;;;;;;5035678;28;19909;-78
2022/06/23 04:42:27;;;;;;;;;;;;;;;;;;5033724;28;19913;-78
2022/06/23 04:44:53;;;;;;;;;;;;;;;;;;5036627;28;19920;-78
2022/06/23 04:47:19;;;;;;;;;;;;;;;;;;5039801;28;20293;-78
2022/06/23 04:49:45;;;;;;;;;;;;;;;;;;5034930;28;20002;-79
2022/06/23 04:52:12;;;;;;;;;;;;;;;;;;5033475;28;20000;-78
2022/06/23 04:54:37;;;;;;;;;;;;;;;;;;5038877;28;19917;-79
2022/06/23 04:57:03;;;;;;;;;;;;;;;;;;5031222;28;19960;-80
2022/06/23 04:59:29;;;;;;;;;;;;;;;;;;5031603;28;19963;-80
2022/06/23 05:01:55;;;;;;;;;;;;;;;;;;5030956;28;19921;-80
2022/06/23 05:04:21;;;;;;;;;;;;;;;;;;5025378;28;19913;-80
2022/06/23 05:06:47;;;;;;;;;;;;;;;;;;5029768;28;19917;-78
2022/06/23 05:09:13;;;;;;;;;;;;;;;;;;5034459;28;19944;-78
2022/06/23 05:11:39;;;;;;;;;;;;;;;;;;5036106;28;20280;-78
2022/06/23 05:14:05;;;;;;;;;;;;;;;;;;5023664;28;19913;-79
2022/06/23 05:16:31;;;;;;;;;;;;;;;;;;5016088;28;19924;-79
2022/06/23 05:18:57;;;;;;;;;;;;;;;;;;5023904;28;19914;-80
2022/06/23 05:21:23;;;;;;;;;;;;;;;;;;5039032;28;19913;-81
2022/06/23 05:23:49;;;;;;;;;;;;;;;;;;5039726;28;19913;-80
2022/06/23 05:26:15;;;;;;;;;;;;;;;;;;5037935;28;20328;-79
2022/06/23 05:28:41;;;;;;;;;;;;;;;;;;5036631;28;19913;-79
2022/06/23 05:31:07;;;;;;;;;;;;;;;;;;5037180;28;19909;-78
2022/06/23 05:33:33;;;;;;;;;;;;;;;;;;5036548;28;19916;-79
2022/06/23 05:35:59;;;;;;;;;;;;;;;;;;5019237;28;20215;-81
2022/06/23 05:38:25;;;;;;;;;;;;;;;;;;5036772;28;19909;-81
2022/06/23 05:40:51;;;;;;;;;;;;;;;;;;5039326;28;19920;-81
2022/06/23 05:43:17;;;;;;;;;;;;;;;;;;5037969;28;19916;-78
2022/06/23 05:45:43;;;;;;;;;;;;;;;;;;5039104;28;19913;-79
2022/06/23 05:48:09;;;;;;;;;;;;;;;;;;5039303;28;19968;-79
2022/06/23 05:50:36;;;;;;;;;;;;;;;;;;5051245;28;19921;-80
2022/06/23 05:53:02;;;;;;;;;;;;;;;;;;5044505;28;19913;-81
2022/06/23 05:55:27;;;;;;;;;;;;;;;;;;5058229;28;19924;-79
2022/06/23 05:57:54;;;;;;;;;;;;;;;;;;5054058;28;19912;-78
2022/06/23 06:00:20;;;;;;;;;;;;;;;;;;5036011;28;19916;-78
2022/06/23 06:02:45;;;;;;;;;;;;;;;;;;5037393;28;19913;-78
2022/06/23 06:05:11;;;;;;;;;;;;;;;;;;5034288;28;20292;-78
2022/06/23 06:07:37;;;;;;;;;;;;;;;;;;5037146;28;19913;-79
2022/06/23 06:10:03;;;;;;;;;;;;;;;;;;5036339;28;19917;-78
2022/06/23 06:12:29;;;;;;;;;;;;;;;;;;5038371;28;20437;-79
2022/06/23 06:14:57;;;;;;;;;;;;;;;;;;5038042;28;19927;-79
2022/06/23 06:17:22;;;;;;;;;;;;;;;;;;5036107;28;19924;-78
2022/06/23 06:19:48;;;;;;;;;;;;;;;;;;5035425;28;19910;-78
2022/06/23 06:22:14;;;;;;;;;;;;;;;;;;5036612;28;20343;-79
2022/06/23 06:24:40;;;;;;;;;;;;;;;;;;5036089;28;19920;-77
2022/06/23 06:27:09;;;;;;;;;;;;;;;;;;5034807;28;19973;-78
2022/06/23 06:29:35;;;;;;;;;;;;;;;;;;5035676;28;19959;-78
2022/06/23 06:32:01;;;;;;;;;;;;;;;;;;5035527;28;19917;-78
2022/06/23 06:34:27;;;;;;;;;;;;;;;;;;5034337;28;19948;-78
2022/06/23 06:36:53;;;;;;;;;;;;;;;;;;5035622;28;19947;-77
2022/06/23 06:39:19;;;;;;;;;;;;;;;;;;5034391;28;20507;-78
2022/06/23 06:41:45;;;;;;;;;;;;;;;;;;5035603;28;19999;-77
2022/06/23 06:44:10;;;;;;;;;;;;;;;;;;5035985;28;19909;-78
2022/06/23 06:46:36;;;;;;;;;;;;;;;;;;5036697;28;19920;-78
2022/06/23 06:49:02;;;;;;;;;;;;;;;;;;5036157;28;20413;-79
2022/06/23 06:51:29;;;;;;;;;;;;;;;;;;5035962;28;19913;-78
2022/06/23 06:53:55;;;;;;;;;;;;;;;;;;5035789;28;19917;-79
2022/06/23 06:56:21;;;;;;;;;;;;;;;;;;5035958;28;19963;-79
2022/06/23 06:58:47;;;;;;;;;;;;;;;;;;5033695;28;19913;-79
2022/06/23 07:01:13;;;;;;;;;;;;;;;;;;5036084;28;19913;-79
2022/06/23 07:03:39;;;;;;;;;;;;;;;;;;5036446;28;19909;-80
2022/06/23 07:06:05;;;;;;;;;;;;;;;;;;5034065;28;20295;-82
2022/06/23 07:08:31;;;;;;;;;;;;;;;;;;5033269;28;19909;-81
2022/06/23 07:10:57;;;;;;;;;;;;;;;;;;5035182;28;19913;-81
2022/06/23 07:13:23;;;;;;;;;;;;;;;;;;5033863;28;20027;-82
2022/06/23 07:15:49;;;;;;;;;;;;;;;;;;5033489;28;20054;-82
2022/06/23 07:18:14;;;;;;;;;;;;;;;;;;5033802;28;20004;-80
2022/06/23 07:20:40;;;;;;;;;;;;;;;;;;5032730;28;20338;-80
2022/06/23 07:23:06;;;;;;;;;;;;;;;;;;5034643;28;20000;-79
2022/06/23 07:25:32;;;;;;;;;;;;;;;;;;5032969;28;19920;-79
2022/06/23 07:27:58;;;;;;;;;;;;;;;;;;5032689;28;19909;-80
2022/06/23 07:30:24;;;;;;;;;;;;;;;;;;5032016;28;19909;-79
2022/06/23 07:32:50;;;;;;;;;;;;;;;;;;5033103;28;19913;-81
2022/06/23 07:35:16;;;;;;;;;;;;;;;;;;5033926;28;19953;-82
2022/06/23 07:37:42;;;;;;;;;;;;;;;;;;5034261;28;19978;-80
2022/06/23 07:40:08;;;;;;;;;;;;;;;;;;5031634;28;19916;-80
2022/06/23 07:42:33;;;;;;;;;;;;;;;;;;5034226;28;20316;-81
2022/06/23 07:44:59;;;;;;;;;;;;;;;;;;5032330;28;19915;-80
2022/06/23 07:47:25;;;;;;;;;;;;;;;;;;5032543;28;19924;-80
2022/06/23 07:49:51;;;;;;;;;;;;;;;;;;5031442;28;19916;-80
2022/06/23 07:52:17;;;;;;;;;;;;;;;;;;5033676;28;19913;-80
2022/06/23 07:54:43;;;;;;;;;;;;;;;;;;5033285;28;19917;-80
2022/06/23 07:57:09;;;;;;;;;;;;;;;;;;5034641;28;19945;-80
2022/06/23 07:59:35;;;;;;;;;;;;;;;;;;5034331;28;19916;-80
2022/06/23 08:02:01;;;;;;;;;;;;;;;;;;5034743;28;19965;-81
2022/06/23 08:04:27;;;;;;;;;;;;;;;;;;5033084;28;20344;-81
2022/06/23 08:06:53;;;;;;;;;;;;;;;;;;5034579;28;19916;-80
2022/06/23 08:09:19;;;;;;;;;;;;;;;;;;5032125;28;20364;-81
2022/06/23 08:14:40;;;;;;;;;;;;;;;;;;5014276;28;19913;-81
2022/06/23 08:17:05;;;;;;;;;;;;;;;;;;5034286;28;19955;-80
2022/06/23 08:19:31;;;;;;;;;;;;;;;;;;5032821;28;20284;-80
2022/06/23 08:21:57;;;;;;;;;;;;;;;;;;5033922;28;19935;-80
2022/06/23 08:24:23;;;;;;;;;;;;;;;;;;5032469;28;19910;-81
2022/06/23 08:26:49;;;;;;;;;;;;;;;;;;5034704;28;20377;-84
2022/06/23 08:29:15;;;;;;;;;;;;;;;;;;5032503;28;19913;-83
2022/06/23 08:31:41;;;;;;;;;;;;;;;;;;5033249;28;19909;-83
2022/06/23 08:34:07;;;;;;;;;;;;;;;;;;5034895;28;19915;-83
2022/06/23 08:36:33;;;;;;;;;;;;;;;;;;5032519;28;20038;-83
2022/06/23 08:39:00;;;;;;;;;;;;;;;;;;5032483;28;19916;-83
2022/06/23 08:41:26;;;;;;;;;;;;;;;;;;5033401;28;20285;-81
2022/06/23 08:43:52;;;;;;;;;;;;;;;;;;5032635;28;19909;-81
2022/06/23 08:46:17;;;;;;;;;;;;;;;;;;5034364;28;19920;-81
2022/06/23 08:48:43;;;;;;;;;;;;;;;;;;5033236;28;19944;-81
2022/06/23 08:51:09;;;;;;;;;;;;;;;;;;5032184;28;19998;-81
2022/06/23 08:53:35;;;;;;;;;;;;;;;;;;5033856;28;20380;-80
2022/06/23 08:56:01;;;;;;;;;;;;;;;;;;5033471;28;19921;-81
2022/06/23 08:58:27;;;;;;;;;;;;;;;;;;5034108;28;20278;-80
2022/06/23 09:00:53;;;;;;;;;;;;;;;;;;5033613;28;19913;-80
2022/06/23 09:03:19;;;;;;;;;;;;;;;;;;5032740;28;20333;-80
2022/06/23 09:05:44;;;;;;;;;;;;;;;;;;5033676;28;19909;-81
2022/06/23 09:08:11;;;;;;;;;;;;;;;;;;5034075;28;19909;-82
2022/06/23 09:10:37;;;;;;;;;;;;;;;;;;5032791;28;19920;-81
2022/06/23 09:13:03;;;;;;;;;;;;;;;;;;5033883;28;19913;-81
2022/06/23 09:15:29;;;;;;;;;;;;;;;;;;5027366;28;19927;-81
2022/06/23 09:17:55;;;;;;;;;;;;;;;;;;5038400;28;19912;-81
2022/06/23 09:20:20;;;;;;;;;;;;;;;;;;5047126;28;19959;-80
2022/06/23 09:22:46;;;;;;;;;;;;;;;;;;5032205;28;20316;-81
2022/06/23 09:25:12;;;;;;;;;;;;;;;;;;5031579;28;19956;-81
2022/06/23 09:27:39;;;;;;;;;;;;;;;;;;5030861;28;19916;-81
2022/06/23 09:30:04;;;;;;;;;;;;;;;;;;5029775;28;19909;-80
2022/06/23 09:32:30;;;;;;;;;;;;;;;;;;5030062;28;20293;-82
2022/06/23 09:34:56;;;;;;;;;;;;;;;;;;5029933;28;19935;-81
2022/06/23 09:37:22;;;;;;;;;;;;;;;;;;5029671;28;19921;-81
2022/06/23 09:39:48;;;;;;;;;;;;;;;;;;5030315;28;20380;-80
2022/06/23 09:42:14;;;;;;;;;;;;;;;;;;5029930;28;19909;-81
2022/06/23 09:44:40;;;;;;;;;;;;;;;;;;5031152;28;20010;-81
2022/06/23 09:47:06;;;;;;;;;;;;;;;;;;5029789;28;19924;-80
2022/06/23 09:49:32;;;;;;;;;;;;;;;;;;5029461;28;19916;-80
2022/06/23 09:51:57;;;;;;;;;;;;;;;;;;5030109;28;20287;-80
2022/06/23 09:54:24;;;;;;;;;;;;;;;;;;5031815;28;19917;-79
2022/06/23 09:56:50;;;;;;;;;;;;;;;;;;5026437;28;19924;-80
2022/06/23 09:59:16;;;;;;;;;;;;;;;;;;5030369;28;19909;-80
2022/06/23 10:01:42;;;;;;;;;;;;;;;;;;5030678;28;20309;-80
2022/06/23 10:04:08;;;;;;;;;;;;;;;;;;5036811;28;19940;-81
2022/06/23 10:06:34;;;;;;;;;;;;;;;;;;5035800;28;20366;-80
2022/06/23 10:09:00;;;;;;;;;;;;;;;;;;5055162;28;19920;-80
2022/06/23 10:11:25;;;;;;;;;;;;;;;;;;5054542;28;19905;-81
2022/06/23 10:13:51;;;;;;;;;;;;;;;;;;5053523;28;20377;-82
2022/06/23 10:16:17;;;;;;;;;;;;;;;;;;5036059;28;19924;-81
2022/06/23 10:18:43;;;;;;;;;;;;;;;;;;5034294;28;19913;-81
2022/06/23 10:21:09;;;;;;;;;;;;;;;;;;5034704;28;19920;-81
2022/06/23 10:23:35;;;;;;;;;;;;;;;;;;5022661;28;19918;-83
2022/06/23 10:26:01;;;;;;;;;;;;;;;;;;5013691;28;20000;-81
2022/06/23 10:28:27;;;;;;;;;;;;;;;;;;5012947;28;20392;-82
2022/06/23 10:30:53;;;;;;;;;;;;;;;;;;5029989;28;19928;-80
2022/06/23 10:33:19;;;;;;;;;;;;;;;;;;5033434;28;19915;-79
2022/06/23 10:35:45;;;;;;;;;;;;;;;;;;5034295;28;20414;-81
2022/06/23 10:38:11;;;;;;;;;;;;;;;;;;5033299;28;19916;-81
2022/06/23 10:40:37;;;;;;;;;;;;;;;;;;5034423;28;19909;-80
2022/06/23 10:43:02;;;;;;;;;;;;;;;;;;5033370;28;20007;-80
2022/06/23 10:45:28;;;;;;;;;;;;;;;;;;5033537;28;19910;-80
2022/06/23 10:47:54;;;;;;;;;;;;;;;;;;5033605;28;19943;-80
2022/06/23 10:50:20;;;;;;;;;;;;;;;;;;5050480;28;19960;-81
2022/06/23 10:52:46;;;;;;;;;;;;;;;;;;5036164;28;19959;-81
2022/06/23 10:55:12;;;;;;;;;;;;;;;;;;5033075;28;20380;-80
2022/06/23 10:57:38;;;;;;;;;;;;;;;;;;5020581;28;20015;-82
2022/06/23 11:00:04;;;;;;;;;;;;;;;;;;5013248;28;20412;-81
2022/06/23 11:02:30;;;;;;;;;;;;;;;;;;5013412;28;20132;-81
2022/06/23 11:04:56;;;;;;;;;;;;;;;;;;5014403;28;19914;-81
2022/06/23 11:07:23;;;;;;;;;;;;;;;;;;5013284;28;19913;-81
2022/06/23 11:09:49;;;;;;;;;;;;;;;;;;5012889;28;20425;-81
2022/06/23 11:12:15;;;;;;;;;;;;;;;;;;5014479;28;19952;-81
2022/06/23 11:14:40;;;;;;;;;;;;;;;;;;5013762;28;19980;-82
2022/06/23 11:17:06;;;;;;;;;;;;;;;;;;5013244;28;20280;-79
2022/06/23 11:19:33;;;;;;;;;;;;;;;;;;5011947;28;19914;-79
2022/06/23 11:21:59;;;;;;;;;;;;;;;;;;5022037;28;19919;-80
2022/06/23 11:24:25;;;;;;;;;;;;;;;;;;5032586;28;19992;-80
2022/06/23 11:26:51;;;;;;;;;;;;;;;;;;5035277;28;20355;-79
2022/06/23 11:29:17;;;;;;;;;;;;;;;;;;5032899;28;19913;-81
2022/06/23 11:31:43;;;;;;;;;;;;;;;;;;5020687;28;20313;-80
2022/06/23 11:34:11;;;;;;;;;;;;;;;;;;5014065;28;19914;-80
2022/06/23 11:36:37;;;;;;;;;;;;;;;;;;5015440;28;20060;-81
2022/06/23 11:39:03;;;;;;;;;;;;;;;;;;5013022;28;19944;-80
2022/06/23 11:41:28;;;;;;;;;;;;;;;;;;5014065;28;20385;-82
2022/06/23 11:43:54;;;;;;;;;;;;;;;;;;5013542;28;20377;-81
2022/06/23 11:46:20;;;;;;;;;;;;;;;;;;5012789;28;19910;-81
2022/06/23 11:48:46;;;;;;;;;;;;;;;;;;5024777;28;20281;-81
2022/06/23 11:51:13;;;;;;;;;;;;;;;;;;5027606;28;19910;-81
2022/06/23 11:53:38;;;;;;;;;;;;;;;;;;5013472;28;20000;-82
2022/06/23 11:56:04;;;;;;;;;;;;;;;;;;5011966;28;20008;-82
2022/06/23 11:58:30;;;;;;;;;;;;;;;;;;5012068;28;20396;-80
2022/06/23 12:00:56;;;;;;;;;;;;;;;;;;5013311;28;19967;-79
2022/06/23 12:03:22;;;;;;;;;;;;;;;;;;5013621;28;19917;-80
2022/06/23 12:05:48;;;;;;;;;;;;;;;;;;5024678;28;19922;-80
2022/06/23 12:08:14;;;;;;;;;;;;;;;;;;5027496;28;19913;-82
2022/06/23 12:10:40;;;;;;;;;;;;;;;;;;5024691;28;19919;-79
2022/06/23 12:13:06;;;;;;;;;;;;;;;;;;5026988;28;20436;-82
2022/06/23 12:15:32;;;;;;;;;;;;;;;;;;5032882;28;19980;-80
2022/06/23 12:17:57;;;;;;;;;;;;;;;;;;5033499;28;19909;-79
2022/06/23 12:20:23;;;;;;;;;;;;;;;;;;5026489;28;19920;-79
2022/06/23 12:22:49;;;;;;;;;;;;;;;;;;5032032;28;19909;-80
2022/06/23 12:25:15;;;;;;;;;;;;;;;;;;5019746;28;20361;-80
2022/06/23 12:27:41;;;;;;;;;;;;;;;;;;5035771;28;19919;-79
2022/06/23 12:30:07;;;;;;;;;;;;;;;;;;5052643;28;19913;-80
2022/06/23 12:32:33;;;;;;;;;;;;;;;;;;5050908;28;19920;-80
2022/06/23 12:35:02;;;;;;;;;;;;;;;;;;5052270;28;20358;-80
2022/06/23 12:37:27;;;;;;;;;;;;;;;;;;5040403;28;19914;-81
2022/06/23 12:39:53;;;;;;;;;;;;;;;;;;5017254;28;20016;-78
2022/06/23 12:42:19;;;;;;;;;;;;;;;;;;5012964;28;19913;-80
2022/06/23 12:44:45;;;;;;;;;;;;;;;;;;5014049;28;20292;-80
2022/06/23 12:47:11;;;;;;;;;;;;;;;;;;5013055;28;19925;-80
2022/06/23 12:49:37;;;;;;;;;;;;;;;;;;5014676;28;19928;-80
2022/06/23 12:52:03;;;;;;;;;;;;;;;;;;5052188;28;19952;-80
2022/06/23 12:54:29;;;;;;;;;;;;;;;;;;5052662;28;20393;-80
2022/06/23 12:56:55;;;;;;;;;;;;;;;;;;5022751;28;20127;-79
2022/06/23 12:59:21;;;;;;;;;;;;;;;;;;5012966;28;19906;-83
2022/06/23 13:01:47;;;;;;;;;;;;;;;;;;5012576;28;20008;-81
2022/06/23 13:04:13;;;;;;;;;;;;;;;;;;5013504;28;19913;-79
2022/06/23 13:06:39;;;;;;;;;;;;;;;;;;5012308;28;19916;-78
2022/06/23 13:09:05;;;;;;;;;;;;;;;;;;5019375;28;19909;-82
2022/06/23 13:11:31;;;;;;;;;;;;;;;;;;5030218;28;19913;-79
2022/06/23 13:13:57;;;;;;;;;;;;;;;;;;5033730;28;19962;-80
2022/06/23 13:16:23;;;;;;;;;;;;;;;;;;5033821;28;20365;-80
2022/06/23 13:18:48;;;;;;;;;;;;;;;;;;5034633;28;19944;-80
2022/06/23 13:21:14;;;;;;;;;;;;;;;;;;5034787;28;20425;-81
2022/06/23 13:23:40;;;;;;;;;;;;;;;;;;5033848;28;19913;-81
2022/06/23 13:26:06;;;;;;;;;;;;;;;;;;5033536;28;19963;-81
2022/06/23 13:28:32;;;;;;;;;;;;;;;;;;5033944;28;19920;-81
2022/06/23 13:30:58;;;;;;;;;;;;;;;;;;5035265;28;19909;-82
2022/06/23 13:33:24;;;;;;;;;;;;;;;;;;5034443;28;19920;-82
2022/06/23 13:35:50;;;;;;;;;;;;;;;;;;5035470;28;20267;-82
2022/06/23 13:38:16;;;;;;;;;;;;;;;;;;5037317;28;19915;-81
2022/06/23 13:40:42;;;;;;;;;;;;;;;;;;5036692;28;19912;-81
2022/06/23 13:43:08;;;;;;;;;;;;;;;;;;5034478;28;19967;-81
2022/06/23 13:45:33;;;;;;;;;;;;;;;;;;5033063;28;20361;-82
2022/06/23 13:48:00;;;;;;;;;;;;;;;;;;5023407;28;19918;-80
2022/06/23 13:50:26;;;;;;;;;;;;;;;;;;5017857;28;19935;-81
2022/06/23 13:52:52;;;;;;;;;;;;;;;;;;5019997;28;19910;-82
2022/06/23 13:55:18;;;;;;;;;;;;;;;;;;5016248;28;19913;-81
2022/06/23 13:57:44;;;;;;;;;;;;;;;;;;5022456;28;19920;-79
2022/06/23 14:00:10;;;;;;;;;;;;;;;;;;5041305;28;20368;-79
2022/06/23 14:02:37;;;;;;;;;;;;;;;;;;5036314;28;19913;-80
2022/06/23 14:05:03;;;;;;;;;;;;;;;;;;5047321;28;19915;-81
2022/06/23 14:07:28;;;;;;;;;;;;;;;;;;5059566;28;20003;-81
2022/06/23 14:09:55;;;;;;;;;;;;;;;;;;5060534;28;19909;-81
2022/06/23 14:12:21;;;;;;;;;;;;;;;;;;5060276;28;20060;-81
2022/06/23 14:14:47;;;;;;;;;;;;;;;;;;5057834;28;19917;-80
2022/06/23 14:17:13;;;;;;;;;;;;;;;;;;5055413;28;20380;-79
2022/06/23 14:19:39;;;;;;;;;;;;;;;;;;5054066;28;19909;-78
2022/06/23 14:22:05;;;;;;;;;;;;;;;;;;5022697;28;19925;-78
2022/06/23 14:24:31;;;;;;;;;;;;;;;;;;5015991;28;19913;-79
2022/06/23 14:26:57;;;;;;;;;;;;;;;;;;5015278;28;19916;-81
2022/06/23 14:29:23;;;;;;;;;;;;;;;;;;5016307;28;19910;-80
2022/06/23 14:31:49;;;;;;;;;;;;;;;;;;5018211;28;19916;-80
2022/06/23 14:34:15;;;;;;;;;;;;;;;;;;5018352;28;19917;-80
2022/06/23 14:36:41;;;;;;;;;;;;;;;;;;5018072;28;19916;-81
2022/06/23 14:39:07;;;;;;;;;;;;;;;;;;5032312;28;20276;-80
2022/06/23 14:41:32;;;;;;;;;;;;;;;;;;5033849;28;19917;-80
2022/06/23 14:43:58;;;;;;;;;;;;;;;;;;5034183;28;19909;-81
2022/06/23 14:46:24;;;;;;;;;;;;;;;;;;5038951;28;19909;-81
2022/06/23 14:48:50;;;;;;;;;;;;;;;;;;5034580;28;19920;-78
2022/06/23 14:51:16;;;;;;;;;;;;;;;;;;5035870;28;19918;-80
2022/06/23 14:53:43;;;;;;;;;;;;;;;;;;5033246;28;19920;-80
2022/06/23 14:56:09;;;;;;;;;;;;;;;;;;5017891;28;19960;-78
2022/06/23 14:58:35;;;;;;;;;;;;;;;;;;5014930;28;19975;-79
2022/06/23 15:01:00;;;;;;;;;;;;;;;;;;5015268;28;19920;-78
2022/06/23 15:03:27;;;;;;;;;;;;;;;;;;5015512;28;19910;-79
2022/06/23 15:05:55;;;;;;;;;;;;;;;;;;5015334;28;19914;-79
2022/06/23 15:08:21;;;;;;;;;;;;;;;;;;5015558;28;19997;-78
2022/06/23 15:10:47;;;;;;;;;;;;;;;;;;5015871;28;19913;-79
2022/06/23 15:13:13;;;;;;;;;;;;;;;;;;5015168;28;19916;-78
2022/06/23 15:15:38;;;;;;;;;;;;;;;;;;5013959;28;20285;-78
2022/06/23 15:18:04;;;;;;;;;;;;;;;;;;5013176;28;19916;-79
2022/06/23 15:20:30;;;;;;;;;;;;;;;;;;5014882;28;20024;-80
2022/06/23 15:23:12;;;;;;;;;;;;;;;;;;5015045;28;19956;-81
2022/06/23 15:25:38;;;;;;;;;;;;;;;;;;5054124;28;20315;-80
2022/06/23 15:28:04;;;;;;;;;;;;;;;;;;5044982;28;19997;-81
2022/06/23 15:30:30;;;;;;;;;;;;;;;;;;5021311;28;19953;-81
2022/06/23 15:32:56;;;;;;;;;;;;;;;;;;5031910;28;19909;-80
2022/06/23 15:35:22;;;;;;;;;;;;;;;;;;5032968;28;19917;-81
2022/06/23 15:37:48;;;;;;;;;;;;;;;;;;5035565;28;19909;-82
2022/06/23 15:40:14;;;;;;;;;;;;;;;;;;5035362;28;20392;-80
2022/06/23 15:42:40;;;;;;;;;;;;;;;;;;5033277;28;19928;-80
2022/06/23 15:45:06;;;;;;;;;;;;;;;;;;5023337;28;20404;-81
2022/06/23 15:47:31;;;;;;;;;;;;;;;;;;5028361;28;19928;-81
2022/06/23 15:49:57;;;;;;;;;;;;;;;;;;5033234;28;20370;-81
2022/06/23 15:52:23;;;;;;;;;;;;;;;;;;5032249;28;19943;-80
2022/06/23 15:54:49;;;;;;;;;;;;;;;;;;5015333;28;19914;-80
2022/06/23 15:57:15;;;;;;;;;;;;;;;;;;5051564;28;20284;-81
2022/06/23 15:59:41;;;;;;;;;;;;;;;;;;5053929;28;19909;-81
2022/06/23 16:02:07;;;;;;;;;;;;;;;;;;5048394;28;19916;-82
2022/06/23 16:04:35;;;;;;;;;;;;;;;;;;5035126;28;19919;-81
2022/06/23 16:07:01;;;;;;;;;;;;;;;;;;5036644;28;19916;-81
2022/06/23 16:09:27;;;;;;;;;;;;;;;;;;5034176;28;19905;-81
2022/06/23 16:11:53;;;;;;;;;;;;;;;;;;5037703;28;19964;-81
2022/06/23 16:14:19;;;;;;;;;;;;;;;;;;5035720;28;19909;-81
2022/06/23 16:16:45;;;;;;;;;;;;;;;;;;5037343;28;20500;-82
2022/06/23 16:19:11;;;;;;;;;;;;;;;;;;5031125;28;19913;-82
2022/06/23 16:21:37;;;;;;;;;;;;;;;;;;5033771;28;19909;-82
2022/06/23 16:24:03;;;;;;;;;;;;;;;;;;5032644;28;20007;-82
2022/06/23 16:26:29;;;;;;;;;;;;;;;;;;5047184;28;19966;-82
2022/06/23 16:28:55;;;;;;;;;;;;;;;;;;5050194;28;20010;-81
2022/06/23 16:31:21;;;;;;;;;;;;;;;;;;5052491;28;19916;-80
2022/06/23 16:33:46;;;;;;;;;;;;;;;;;;5052023;28;19909;-81
2022/06/23 16:36:12;;;;;;;;;;;;;;;;;;5051514;28;20288;-80
2022/06/23 16:38:38;;;;;;;;;;;;;;;;;;5018637;28;19913;-80
2022/06/23 16:41:04;;;;;;;;;;;;;;;;;;5031867;28;19916;-80
2022/06/23 16:43:30;;;;;;;;;;;;;;;;;;5032041;28;19944;-79